Weather at Vunisea Airport

Public forecast

Using degrees Celsius for public forecast. Weather courtesy of forecast.io.

Current aviation weather report (METAR) for Vunisea Airport

Report is more than 6 hours old.

Retrieved 2022/05/21 00:00 UTC (2 days ago):

NFKD 210000Z 13012KT 9999 FEW030 SCT050 BKN110 28/22 Q1014

Closest aviation forecast (TAF) to Vunisea Airport

Closest forecast is Nausori International Airport, 65.1 nm (120.5 km) NNE. Retrieved 2022/05/22 18:00 UTC (2 hours ago):

TAF NFNA 221713Z 2218/2318 VRB03KT 9999 SCT017 PROB40 TEMPO 2300/2318 5000 SHRA BKN015